createdAt,value
2022-08-01T00:00:58.223Z,1.05
2022-08-01T00:04:01.476Z,1.40
2022-08-01T00:07:04.886Z,0.90
2022-08-01T00:10:14.574Z,1.23
2022-08-01T00:13:17.208Z,1.60
2022-08-01T00:16:20.467Z,1.40
2022-08-01T00:19:23.012Z,1.40
2022-08-01T00:22:25.856Z,1.20
2022-08-01T00:25:34.360Z,1.67
2022-08-01T00:28:37.526Z,1.20
2022-08-01T00:31:40.144Z,1.35
2022-08-01T00:34:42.998Z,1.30
2022-08-01T00:37:45.755Z,1.10
2022-08-01T00:40:48.872Z,1.20
2022-08-01T00:43:51.420Z,1.50
2022-08-01T00:46:54.321Z,1.42
2022-08-01T00:49:56.977Z,1.30
2022-08-01T00:53:00.639Z,1.50
2022-08-01T00:56:03.487Z,1.40
2022-08-01T00:59:06.887Z,1.40
2022-08-01T01:02:14.853Z,1.60
2022-08-01T01:05:18.735Z,1.37
2022-08-01T01:08:25.890Z,1.55
2022-08-01T01:11:44.734Z,1.50
2022-08-01T01:14:58.115Z,1.50
2022-08-01T01:18:04.870Z,1.48
2022-08-01T01:21:19.366Z,1.60
2022-08-01T01:25:13.218Z,1.50
2022-08-01T01:28:15.654Z,1.23
2022-08-01T01:31:21.165Z,1.20
2022-08-01T01:34:24.245Z,1.27
2022-08-01T01:37:28.446Z,1.48
2022-08-01T01:40:31.499Z,1.75
2022-08-01T01:43:35.362Z,1.30
2022-08-01T01:46:38.735Z,1.40
2022-08-01T01:49:42.864Z,1.42
2022-08-01T01:52:46.254Z,1.40
2022-08-01T01:55:53.380Z,1.35
2022-08-01T01:59:01.036Z,1.37
2022-08-01T02:02:06.900Z,1.43
2022-08-01T02:05:12.618Z,1.87
2022-08-01T02:08:18.554Z,1.48
2022-08-01T02:11:23.204Z,1.42
2022-08-01T02:14:28.132Z,1.60
2022-08-01T02:17:31.957Z,1.87
2022-08-01T02:20:35.778Z,1.40
2022-08-01T02:23:40.101Z,1.48
2022-08-01T02:26:47.275Z,1.50
2022-08-01T02:30:07.786Z,1.40
2022-08-01T02:33:17.810Z,1.70
2022-08-01T02:36:29.705Z,1.55
2022-08-01T02:39:35.252Z,1.60
2022-08-01T02:42:38.997Z,1.48
2022-08-01T02:45:44.669Z,1.48
2022-08-01T02:48:48.761Z,1.70
2022-08-01T02:51:52.942Z,1.60
2022-08-01T02:54:57.644Z,2.05
2022-08-01T02:58:01.568Z,1.40
2022-08-01T03:01:07.003Z,1.60
2022-08-01T03:04:11.703Z,1.50
2022-08-01T03:07:15.942Z,1.65
2022-08-01T03:10:19.571Z,1.90
2022-08-01T03:13:23.083Z,1.55
2022-08-01T03:16:27.381Z,1.40
2022-08-01T03:19:31.408Z,1.47
2022-08-01T03:22:34.876Z,1.60
2022-08-01T03:25:40.494Z,1.50
2022-08-01T03:28:45.783Z,2.10
2022-08-01T03:31:49.421Z,2.17
2022-08-01T03:34:51.950Z,1.97
2022-08-01T03:41:25.825Z,1.75
2022-08-01T03:44:31.981Z,2.00
2022-08-01T03:47:43.497Z,2.03
2022-08-01T03:50:49.930Z,1.80
2022-08-01T03:53:55.534Z,2.05
2022-08-01T03:56:58.597Z,1.60
2022-08-01T04:00:01.466Z,1.55
2022-08-01T04:03:04.624Z,1.75
2022-08-01T04:06:09.534Z,1.90
2022-08-01T04:09:13.930Z,1.62
2022-08-01T04:12:16.926Z,1.80
2022-08-01T04:15:21.277Z,1.98
2022-08-01T04:18:24.227Z,2.03
2022-08-01T04:21:31.713Z,2.10
2022-08-01T04:24:36.337Z,2.15
2022-08-01T04:27:50.612Z,1.83
2022-08-01T04:31:01.404Z,1.60
2022-08-01T04:34:07.046Z,1.50
2022-08-01T04:37:11.317Z,1.90
2022-08-01T04:40:17.219Z,1.90
2022-08-01T04:43:20.410Z,1.65
2022-08-01T04:46:23.593Z,1.75
2022-08-01T04:49:26.575Z,1.90
2022-08-01T04:52:36.278Z,1.93
2022-08-01T04:55:39.081Z,1.92
2022-08-01T04:58:42.315Z,1.92
2022-08-01T05:01:49.719Z,1.48
2022-08-01T05:04:52.345Z,1.80
2022-08-01T05:07:55.215Z,1.80
2022-08-01T05:10:57.834Z,1.90
2022-08-01T05:14:01.671Z,1.58
2022-08-01T05:17:06.230Z,1.65
2022-08-01T05:20:10.189Z,1.87
2022-08-01T05:23:16.612Z,1.70
2022-08-01T05:26:26.897Z,1.95
2022-08-01T05:29:30.143Z,1.60
2022-08-01T05:32:33.552Z,1.77
2022-08-01T05:35:48.184Z,2.20
2022-08-01T05:38:51.999Z,2.07
2022-08-01T05:41:54.509Z,2.20
2022-08-01T05:44:57.375Z,2.10
2022-08-01T05:47:59.945Z,1.80
2022-08-01T05:51:03.689Z,2.22
2022-08-01T05:54:06.443Z,2.10
2022-08-01T05:57:09.552Z,2.15
2022-08-01T06:00:15.606Z,1.98
2022-08-01T06:03:18.868Z,2.10
2022-08-01T06:06:25.331Z,1.90
2022-08-01T06:09:28.631Z,1.70
2022-08-01T06:12:35.764Z,2.10
2022-08-01T06:15:38.882Z,2.10
2022-08-01T06:18:41.535Z,2.10
2022-08-01T06:21:44.395Z,1.90
2022-08-01T06:24:46.969Z,1.90
2022-08-01T06:27:50.763Z,2.00
2022-08-01T06:30:54.422Z,1.80
2022-08-01T06:33:58.241Z,1.90
2022-08-01T06:37:00.889Z,2.30
2022-08-01T06:40:16.816Z,1.77
2022-08-01T06:43:20.434Z,1.80
2022-08-01T06:46:23.310Z,2.00
2022-08-01T06:49:32.995Z,1.60
2022-08-01T06:52:36.315Z,1.73
2022-08-01T06:55:39.784Z,1.60
2022-08-01T06:58:42.711Z,1.80
2022-08-01T07:01:45.571Z,1.80
2022-08-01T07:04:48.850Z,1.40
2022-08-01T07:07:51.446Z,1.75
2022-08-01T07:10:54.601Z,1.70
2022-08-01T07:13:58.000Z,1.92
2022-08-01T07:17:00.912Z,1.83
2022-08-01T07:20:03.871Z,1.65
2022-08-01T07:23:07.010Z,1.90
2022-08-01T07:26:10.672Z,1.60
2022-08-01T07:29:13.691Z,1.60
2022-08-01T07:32:16.327Z,1.90
2022-08-01T07:35:21.242Z,1.83
2022-08-01T07:38:23.837Z,1.60
2022-08-01T07:42:06.073Z,1.37
2022-08-01T07:44:49.752Z,1.65
2022-08-01T07:47:52.667Z,1.60
2022-08-01T07:50:55.632Z,1.42
2022-08-01T07:53:58.410Z,1.60
2022-08-01T07:57:02.149Z,1.43
2022-08-01T08:00:09.176Z,1.60
2022-08-01T08:03:12.209Z,1.50
2022-08-01T08:06:14.966Z,1.30
2022-08-01T08:09:17.921Z,1.73
2022-08-01T08:12:28.905Z,1.60
2022-08-01T08:15:33.042Z,1.62
2022-08-01T08:18:36.939Z,1.60
2022-08-01T08:21:41.274Z,1.83
2022-08-01T08:24:45.475Z,1.60
2022-08-01T08:27:49.715Z,1.53
2022-08-01T08:30:54.087Z,1.90
2022-08-01T08:33:56.977Z,2.00
2022-08-01T08:37:00.146Z,1.90
2022-08-01T08:40:05.177Z,1.90
2022-08-01T08:43:08.054Z,1.90
2022-08-01T08:46:17.371Z,2.00
2022-08-01T08:49:23.223Z,1.80
2022-08-01T08:52:26.492Z,1.73
2022-08-01T08:55:29.415Z,1.70
2022-08-01T08:58:35.289Z,1.80
2022-08-01T09:01:38.041Z,1.95
2022-08-01T09:04:41.316Z,1.90
2022-08-01T09:07:43.929Z,1.83
2022-08-01T09:10:46.871Z,1.62
2022-08-01T09:14:14.816Z,1.60
2022-08-01T09:17:19.328Z,1.73
2022-08-01T09:20:25.095Z,1.77
2022-08-01T09:23:53.877Z,1.65
2022-08-01T09:26:58.051Z,1.73
2022-08-01T09:30:19.221Z,2.17
2022-08-01T09:33:26.091Z,1.55
2022-08-01T09:36:55.449Z,1.77
2022-08-01T09:39:59.122Z,1.62
2022-08-01T09:43:15.097Z,1.70
2022-08-01T09:46:18.149Z,1.40
2022-08-01T09:49:49.686Z,1.70
2022-08-01T09:52:55.387Z,1.37
2022-08-01T09:56:11.841Z,1.90
2022-08-01T09:59:14.417Z,1.55
2022-08-01T10:02:37.892Z,1.70
2022-08-01T10:05:43.913Z,1.67
2022-08-01T10:08:52.465Z,1.50
2022-08-01T10:11:56.109Z,1.98
2022-08-01T10:14:59.845Z,1.80
2022-08-01T10:18:06.241Z,1.10
2022-08-01T10:21:56.454Z,1.50
2022-08-01T10:24:44.742Z,1.70
2022-08-01T10:27:50.116Z,1.87
2022-08-01T10:30:53.551Z,1.52
2022-08-01T10:33:56.194Z,1.53
2022-08-01T10:37:01.351Z,1.67
2022-08-01T10:40:29.410Z,1.52
2022-08-01T10:43:32.293Z,1.67
2022-08-01T10:46:39.645Z,1.35
2022-08-01T10:50:08.656Z,1.70
2022-08-01T10:53:16.413Z,1.40
2022-08-01T10:56:49.242Z,1.50
2022-08-01T11:00:00.973Z,1.65
2022-08-01T11:03:05.310Z,1.70
2022-08-01T11:06:08.303Z,1.70
2022-08-01T11:09:16.422Z,1.62
2022-08-01T11:12:24.719Z,1.65
2022-08-01T11:15:31.689Z,1.75
2022-08-01T11:18:37.645Z,1.70
2022-08-01T11:22:02.086Z,1.60
2022-08-01T11:25:04.890Z,1.55
2022-08-01T11:28:28.587Z,1.70
2022-08-01T11:31:37.695Z,1.60
2022-08-01T11:34:56.358Z,1.83
2022-08-01T11:38:29.303Z,1.60
2022-08-01T11:41:37.950Z,1.67
2022-08-01T11:44:51.377Z,1.62
2022-08-01T11:47:54.632Z,1.67
2022-08-01T11:50:58.413Z,1.73
2022-08-01T11:54:05.401Z,1.97
2022-08-01T11:57:10.581Z,1.83
2022-08-01T12:00:18.585Z,1.60
2022-08-01T12:03:34.149Z,1.50
2022-08-01T12:06:37.300Z,1.60
2022-08-01T12:09:43.872Z,1.50
2022-08-01T12:13:11.043Z,1.70
2022-08-01T12:16:14.347Z,1.90
2022-08-01T12:19:24.099Z,1.62
2022-08-01T12:22:27.230Z,1.62
2022-08-01T12:25:30.458Z,2.20
2022-08-01T12:28:40.616Z,1.80
2022-08-01T12:31:43.236Z,1.90
2022-08-01T12:34:46.129Z,1.92
2022-08-01T12:37:51.155Z,1.60
2022-08-01T12:40:54.889Z,1.80
2022-08-01T12:43:57.536Z,2.12
2022-08-01T12:47:01.761Z,1.92
2022-08-01T12:50:15.498Z,2.37
2022-08-01T12:53:22.187Z,2.40
2022-08-01T12:56:34.039Z,2.40
2022-08-01T12:59:36.904Z,1.90
2022-08-01T13:02:40.436Z,2.40
2022-08-01T13:05:43.354Z,1.80
2022-08-01T13:08:46.632Z,2.28
2022-08-01T13:12:02.832Z,1.97
2022-08-01T13:15:26.329Z,1.90
2022-08-01T13:18:31.043Z,2.03
2022-08-01T13:21:52.322Z,2.20
2022-08-01T13:25:14.587Z,2.28
2022-08-01T13:28:23.855Z,2.23
2022-08-01T13:31:34.176Z,2.37
2022-08-01T13:34:36.795Z,2.03
2022-08-01T13:37:43.668Z,2.05
2022-08-01T13:40:46.912Z,2.28
2022-08-01T13:43:58.356Z,1.90
2022-08-01T13:47:14.953Z,2.20
2022-08-01T13:50:19.770Z,1.83
2022-08-01T13:53:22.487Z,2.30
2022-08-01T13:56:25.859Z,2.47
2022-08-01T13:59:28.676Z,2.37
2022-08-01T14:02:31.531Z,2.50
2022-08-01T14:05:34.336Z,2.30
2022-08-01T14:08:37.077Z,2.12
2022-08-01T14:11:40.095Z,2.20
2022-08-01T14:14:48.545Z,2.13
2022-08-01T14:17:52.177Z,2.10
2022-08-01T14:20:54.939Z,2.20
2022-08-01T14:24:02.089Z,2.20
2022-08-01T14:27:04.707Z,2.30
2022-08-01T14:30:08.866Z,2.00
2022-08-01T14:33:12.888Z,2.05
2022-08-01T14:36:30.701Z,1.95
2022-08-01T14:39:34.154Z,2.20
2022-08-01T14:42:39.954Z,1.98
2022-08-01T14:45:42.538Z,2.40
2022-08-01T14:48:45.874Z,2.10
2022-08-01T14:51:48.373Z,2.00
2022-08-01T14:54:51.210Z,1.90
2022-08-01T14:57:54.828Z,1.87
2022-08-01T15:00:59.131Z,1.73
2022-08-01T15:04:02.254Z,1.58
2022-08-01T15:07:07.557Z,2.00
2022-08-01T15:10:11.697Z,2.00
2022-08-01T15:13:14.696Z,1.80
2022-08-01T15:16:17.528Z,2.00
2022-08-01T15:19:20.350Z,1.50
2022-08-01T15:22:23.909Z,1.62
2022-08-01T15:25:26.948Z,2.33
2022-08-01T15:28:44.484Z,1.83
2022-08-01T15:31:47.346Z,1.50
2022-08-01T15:34:50.128Z,1.87
2022-08-01T15:37:53.009Z,1.70
2022-08-01T15:40:55.701Z,1.70
2022-08-01T15:43:58.766Z,1.62
2022-08-01T15:47:02.474Z,1.73
2022-08-01T15:50:06.746Z,1.70
2022-08-01T15:53:09.522Z,1.80
2022-08-01T15:56:12.417Z,1.60
2022-08-01T15:59:15.018Z,1.90
2022-08-01T16:02:18.050Z,1.90
2022-08-01T16:05:21.056Z,1.67
2022-08-01T16:08:24.114Z,1.50
2022-08-01T16:11:27.897Z,2.00
2022-08-01T16:14:30.569Z,1.80
2022-08-01T16:17:33.858Z,2.10
2022-08-01T16:20:40.175Z,2.10
2022-08-01T16:23:47.684Z,1.90
2022-08-01T16:26:50.965Z,1.58
2022-08-01T16:29:53.885Z,1.80
2022-08-01T16:33:07.604Z,1.70
2022-08-01T16:36:17.320Z,1.87
2022-08-01T16:39:23.286Z,1.87
2022-08-01T16:42:27.931Z,1.70
2022-08-01T16:45:30.530Z,1.70
2022-08-01T16:48:33.941Z,1.80
2022-08-01T16:51:47.685Z,1.60
2022-08-01T16:54:50.836Z,1.62
2022-08-01T16:57:53.417Z,1.90
2022-08-01T17:00:57.656Z,1.90
2022-08-01T17:04:19.618Z,1.90
2022-08-01T17:07:22.501Z,1.55
2022-08-01T17:10:26.082Z,1.73
2022-08-01T17:13:29.247Z,1.95
2022-08-01T17:16:36.016Z,1.70
2022-08-01T17:19:39.584Z,2.10
2022-08-01T17:22:42.164Z,1.70
2022-08-01T17:25:45.717Z,1.77
2022-08-01T17:28:48.716Z,1.83
2022-08-01T17:31:51.736Z,1.58
2022-08-01T17:34:54.341Z,1.80
2022-08-01T17:37:57.210Z,1.90
2022-08-01T17:40:59.874Z,1.87
2022-08-01T17:44:02.750Z,1.90
2022-08-01T17:47:06.743Z,1.77
2022-08-01T17:50:11.820Z,1.90
2022-08-01T17:53:20.838Z,1.80
2022-08-01T17:56:24.575Z,2.00
2022-08-01T17:59:27.208Z,2.30
2022-08-01T18:02:30.232Z,2.10
2022-08-01T18:05:37.084Z,2.20
2022-08-01T18:08:43.119Z,1.95
2022-08-01T18:11:46.001Z,2.20
2022-08-01T18:14:48.536Z,2.10
2022-08-01T18:17:52.274Z,2.12
2022-08-01T18:20:54.938Z,2.40
2022-08-01T18:24:01.593Z,2.30
2022-08-01T18:27:04.510Z,2.12
2022-08-01T18:30:08.227Z,2.12
2022-08-01T18:33:10.839Z,2.15
2022-08-01T18:36:29.106Z,2.10
2022-08-01T18:39:35.165Z,1.90
2022-08-01T18:42:38.990Z,2.03
2022-08-01T18:45:43.065Z,2.12
2022-08-01T18:48:46.275Z,2.00
2022-08-01T18:51:49.169Z,1.87
2022-08-01T18:54:52.224Z,2.05
2022-08-01T18:57:54.820Z,2.05
2022-08-01T19:00:57.801Z,2.05
2022-08-01T19:04:00.530Z,2.20
2022-08-01T19:07:04.053Z,2.10
2022-08-01T19:10:07.204Z,2.00
2022-08-01T19:13:10.832Z,2.17
2022-08-01T19:16:13.340Z,2.37
2022-08-01T19:19:27.383Z,2.10
2022-08-01T19:22:30.872Z,2.13
2022-08-01T19:25:33.790Z,2.10
2022-08-01T19:29:00.536Z,2.00
2022-08-01T19:32:09.033Z,2.40
2022-08-01T19:35:14.048Z,2.00
2022-08-01T19:38:17.831Z,2.40
2022-08-01T19:41:21.877Z,2.35
2022-08-01T19:44:25.735Z,2.33
2022-08-01T19:47:51.609Z,2.62
2022-08-01T19:50:51.540Z,2.55
2022-08-01T19:53:55.191Z,2.80
2022-08-01T19:57:01.075Z,2.42
2022-08-01T20:00:04.978Z,2.55
2022-08-01T20:03:09.413Z,2.42
2022-08-01T20:06:12.268Z,2.25
2022-08-01T20:09:15.188Z,2.43
2022-08-01T20:12:21.601Z,2.60
2022-08-01T20:15:25.017Z,2.25
2022-08-01T20:18:27.698Z,2.70
2022-08-01T20:21:31.152Z,2.17
2022-08-01T20:24:41.431Z,3.10
2022-08-01T20:27:45.671Z,2.50
2022-08-01T20:30:53.914Z,2.55
2022-08-01T20:33:57.242Z,2.58
2022-08-01T20:37:00.359Z,2.67
2022-08-01T20:40:03.966Z,2.70
2022-08-01T20:43:07.692Z,2.90
2022-08-01T20:46:10.574Z,2.85
2022-08-01T20:49:13.945Z,2.75
2022-08-01T20:52:16.970Z,3.10
2022-08-01T20:55:19.715Z,2.53
2022-08-01T20:58:56.588Z,2.60
2022-08-01T21:02:26.129Z,2.40
2022-08-01T21:05:56.040Z,2.60
2022-08-01T21:09:03.630Z,2.40
2022-08-01T21:12:08.536Z,2.10
2022-08-01T21:15:31.704Z,2.10
2022-08-01T21:18:39.680Z,2.40
2022-08-01T21:21:46.091Z,2.40
2022-08-01T21:25:00.139Z,2.22
2022-08-01T21:28:03.927Z,2.60
2022-08-01T21:31:08.691Z,2.17
2022-08-01T21:34:15.182Z,2.42
2022-08-01T21:37:18.590Z,2.20
2022-08-01T21:40:22.790Z,2.20
2022-08-01T21:43:25.602Z,2.23
2022-08-01T21:46:30.408Z,2.25
2022-08-01T21:49:33.411Z,2.60
2022-08-01T21:53:07.997Z,2.40
2022-08-01T21:56:37.042Z,2.70
2022-08-01T22:00:07.585Z,2.50
2022-08-01T22:03:23.687Z,2.45
2022-08-01T22:06:27.782Z,2.72
2022-08-01T22:09:32.482Z,2.53
2022-08-01T22:12:36.025Z,2.78
2022-08-01T22:15:44.438Z,2.70
2022-08-01T22:18:48.865Z,2.55
2022-08-01T22:21:52.449Z,2.60
2022-08-01T22:24:55.317Z,2.72
2022-08-01T22:28:06.088Z,2.42
2022-08-01T22:31:13.038Z,2.67
2022-08-01T22:34:19.022Z,2.25
2022-08-01T22:37:57.112Z,2.70
2022-08-01T22:40:52.213Z,2.60
2022-08-01T22:43:57.519Z,2.35
2022-08-01T22:47:16.635Z,2.63
2022-08-01T22:50:36.289Z,2.78
2022-08-01T22:54:04.108Z,1.87
2022-08-01T22:57:30.276Z,2.75
2022-08-01T23:00:35.746Z,2.37
2022-08-01T23:03:41.686Z,2.60
2022-08-01T23:06:47.993Z,2.67
2022-08-01T23:09:53.955Z,2.90
2022-08-01T23:12:57.858Z,2.90
2022-08-01T23:16:01.980Z,2.12
2022-08-01T23:19:05.329Z,2.57
2022-08-01T23:22:09.270Z,2.47
2022-08-01T23:25:15.450Z,2.62
2022-08-01T23:28:18.875Z,2.60
2022-08-01T23:31:26.959Z,2.72
2022-08-01T23:34:46.687Z,2.57
2022-08-01T23:37:51.164Z,2.37
2022-08-01T23:40:54.293Z,2.78
2022-08-01T23:43:57.213Z,2.70
2022-08-01T23:47:00.501Z,2.53
2022-08-01T23:50:04.228Z,2.27
2022-08-01T23:53:06.972Z,2.10
2022-08-01T23:56:10.057Z,2.25
2022-08-01T23:59:15.453Z,2.08
